sensor_id;sensor_type;location;lat;lon;timestamp;pressure;altitude;pressure_sealevel;temperature;humidity
79285;BME280;68734;50.452;11.636;2024-03-06T00:00:14;95508.19;;;3.38;100.00
79285;BME280;68734;50.452;11.636;2024-03-06T00:02:40;95513.91;;;3.42;100.00
79285;BME280;68734;50.452;11.636;2024-03-06T00:05:05;95517.56;;;3.47;100.00
79285;BME280;68734;50.452;11.636;2024-03-06T00:07:33;95516.41;;;3.36;100.00
79285;BME280;68734;50.452;11.636;2024-03-06T00:09:58;95522.56;;;3.37;100.00
79285;BME280;68734;50.452;11.636;2024-03-06T00:12:23;95526.66;;;3.39;100.00
79285;BME280;68734;50.452;11.636;2024-03-06T00:14:49;95526.66;;;3.39;100.00
79285;BME280;68734;50.452;11.636;2024-03-06T00:17:17;95534.31;;;3.29;100.00
79285;BME280;68734;50.452;11.636;2024-03-06T00:19:44;95530.59;;;3.30;100.00
79285;BME280;68734;50.452;11.636;2024-03-06T00:22:10;95535.75;;;3.32;100.00
79285;BME280;68734;50.452;11.636;2024-03-06T00:24:35;95536.22;;;3.22;100.00
79285;BME280;68734;50.452;11.636;2024-03-06T00:27:04;95537.66;;;3.18;100.00
79285;BME280;68734;50.452;11.636;2024-03-06T00:29:32;95534.25;;;3.11;100.00
79285;BME280;68734;50.452;11.636;2024-03-06T00:32:01;95540.38;;;3.11;100.00
79285;BME280;68734;50.452;11.636;2024-03-06T00:34:27;95543.25;;;3.10;100.00
79285;BME280;68734;50.452;11.636;2024-03-06T00:36:53;95551.47;;;3.08;100.00
79285;BME280;68734;50.452;11.636;2024-03-06T00:39:20;95561.38;;;3.01;100.00
79285;BME280;68734;50.452;11.636;2024-03-06T00:41:45;95556.03;;;3.01;100.00
79285;BME280;68734;50.452;11.636;2024-03-06T00:44:11;95553.53;;;3.06;100.00
79285;BME280;68734;50.452;11.636;2024-03-06T00:46:36;95553.59;;;2.99;100.00
79285;BME280;68734;50.452;11.636;2024-03-06T00:49:02;95564.25;;;2.99;100.00
79285;BME280;68734;50.452;11.636;2024-03-06T00:51:27;95565.91;;;2.94;100.00
79285;BME280;68734;50.452;11.636;2024-03-06T00:53:53;95568.19;;;2.90;100.00
79285;BME280;68734;50.452;11.636;2024-03-06T00:56:18;95562.69;;;2.85;100.00
79285;BME280;68734;50.452;11.636;2024-03-06T00:58:44;95569.22;;;2.89;100.00
79285;BME280;68734;50.452;11.636;2024-03-06T01:01:10;95571.03;;;2.95;100.00
79285;BME280;68734;50.452;11.636;2024-03-06T01:03:37;95582.38;;;2.91;100.00
79285;BME280;68734;50.452;11.636;2024-03-06T01:06:02;95580.34;;;2.79;100.00
79285;BME280;68734;50.452;11.636;2024-03-06T01:08:28;95581.16;;;2.80;100.00
79285;BME280;68734;50.452;11.636;2024-03-06T01:10:53;95584.44;;;2.89;100.00
79285;BME280;68734;50.452;11.636;2024-03-06T01:13:20;95580.31;;;2.86;100.00
79285;BME280;68734;50.452;11.636;2024-03-06T01:15:45;95591.41;;;2.83;100.00
79285;BME280;68734;50.452;11.636;2024-03-06T01:18:11;95591.84;;;2.73;100.00
79285;BME280;68734;50.452;11.636;2024-03-06T01:20:36;95590.59;;;2.76;100.00
79285;BME280;68734;50.452;11.636;2024-03-06T01:23:02;95590.81;;;2.74;100.00
79285;BME280;68734;50.452;11.636;2024-03-06T01:25:28;95595.53;;;2.79;100.00
79285;BME280;68734;50.452;11.636;2024-03-06T01:27:53;95601.66;;;2.86;100.00
79285;BME280;68734;50.452;11.636;2024-03-06T01:30:19;95605.78;;;2.82;100.00
79285;BME280;68734;50.452;11.636;2024-03-06T01:32:44;95597.16;;;2.80;100.00
79285;BME280;68734;50.452;11.636;2024-03-06T01:35:10;95596.75;;;2.83;100.00
79285;BME280;68734;50.452;11.636;2024-03-06T01:37:35;95601.72;;;2.73;100.00
79285;BME280;68734;50.452;11.636;2024-03-06T01:40:01;95593.31;;;2.69;100.00
79285;BME280;68734;50.452;11.636;2024-03-06T01:42:29;95594.31;;;2.68;100.00
79285;BME280;68734;50.452;11.636;2024-03-06T01:44:54;95597.22;;;2.67;100.00
79285;BME280;68734;50.452;11.636;2024-03-06T01:47:22;95596.81;;;2.63;100.00
79285;BME280;68734;50.452;11.636;2024-03-06T01:49:50;95597.22;;;2.60;100.00
79285;BME280;68734;50.452;11.636;2024-03-06T01:52:18;95596.41;;;2.59;100.00
79285;BME280;68734;50.452;11.636;2024-03-06T01:54:44;95604.22;;;2.61;100.00
79285;BME280;68734;50.452;11.636;2024-03-06T01:57:11;95612.19;;;2.68;100.00
79285;BME280;68734;50.452;11.636;2024-03-06T01:59:40;95608.66;;;2.74;100.00
79285;BME280;68734;50.452;11.636;2024-03-06T02:02:09;95614.22;;;2.79;100.00
79285;BME280;68734;50.452;11.636;2024-03-06T02:04:37;95613.16;;;2.80;100.00
79285;BME280;68734;50.452;11.636;2024-03-06T02:07:02;95609.88;;;2.78;100.00
79285;BME280;68734;50.452;11.636;2024-03-06T02:09:28;95611.72;;;2.84;100.00
79285;BME280;68734;50.452;11.636;2024-03-06T02:11:54;95604.94;;;2.88;100.00
79285;BME280;68734;50.452;11.636;2024-03-06T02:14:22;95612.31;;;2.86;100.00
79285;BME280;68734;50.452;11.636;2024-03-06T02:16:48;95606.22;;;2.79;100.00
79285;BME280;68734;50.452;11.636;2024-03-06T02:19:13;95620.75;;;2.83;100.00
79285;BME280;68734;50.452;11.636;2024-03-06T02:21:39;95610.88;;;2.90;100.00
79285;BME280;68734;50.452;11.636;2024-03-06T02:24:04;95615.75;;;3.00;100.00
79285;BME280;68734;50.452;11.636;2024-03-06T02:26:30;95620.69;;;3.03;100.00
79285;BME280;68734;50.452;11.636;2024-03-06T02:28:58;95617.84;;;2.91;100.00
79285;BME280;68734;50.452;11.636;2024-03-06T02:31:23;95621.97;;;2.87;100.00
79285;BME280;68734;50.452;11.636;2024-03-06T02:33:49;95618.09;;;2.83;100.00
79285;BME280;68734;50.452;11.636;2024-03-06T02:36:17;95623.59;;;2.88;100.00
79285;BME280;68734;50.452;11.636;2024-03-06T02:38:43;95615.63;;;2.82;100.00
79285;BME280;68734;50.452;11.636;2024-03-06T02:41:12;95616.44;;;2.82;100.00
79285;BME280;68734;50.452;11.636;2024-03-06T02:43:39;95621.16;;;2.87;100.00
79285;BME280;68734;50.452;11.636;2024-03-06T02:46:04;95612.75;;;2.83;100.00
79285;BME280;68734;50.452;11.636;2024-03-06T02:48:30;95616.88;;;2.79;100.00
79285;BME280;68734;50.452;11.636;2024-03-06T02:50:56;95616.47;;;2.75;100.00
79285;BME280;68734;50.452;11.636;2024-03-06T02:53:22;95624.69;;;2.74;100.00
79285;BME280;68734;50.452;11.636;2024-03-06T02:55:48;95619.97;;;2.69;100.00
79285;BME280;68734;50.452;11.636;2024-03-06T02:58:16;95623.06;;;2.73;100.00
79285;BME280;68734;50.452;11.636;2024-03-06T03:00:42;95618.94;;;2.70;100.00
79285;BME280;68734;50.452;11.636;2024-03-06T03:03:08;95615.66;;;2.75;100.00
79285;BME280;68734;50.452;11.636;2024-03-06T03:05:33;95613.19;;;2.73;100.00
79285;BME280;68734;50.452;11.636;2024-03-06T03:07:59;95616.50;;;2.69;100.00
79285;BME280;68734;50.452;11.636;2024-03-06T03:10:25;95617.50;;;2.68;100.00
79285;BME280;68734;50.452;11.636;2024-03-06T03:12:51;95616.09;;;2.58;100.00
79285;BME280;68734;50.452;11.636;2024-03-06T03:15:16;95617.75;;;2.59;100.00
79285;BME280;68734;50.452;11.636;2024-03-06T03:17:42;95616.09;;;2.58;100.00
79285;BME280;68734;50.452;11.636;2024-03-06T03:20:08;95615.28;;;2.58;100.00
79285;BME280;68734;50.452;11.636;2024-03-06T03:22:37;95615.69;;;2.48;100.00
79285;BME280;68734;50.452;11.636;2024-03-06T03:25:07;95622.69;;;2.49;100.00
79285;BME280;68734;50.452;11.636;2024-03-06T03:27:33;95625.56;;;2.41;100.00
79285;BME280;68734;50.452;11.636;2024-03-06T03:29:58;95630.47;;;2.44;100.00
79285;BME280;68734;50.452;11.636;2024-03-06T03:32:26;95626.38;;;2.48;100.00
79285;BME280;68734;50.452;11.636;2024-03-06T03:34:52;95631.50;;;2.50;100.00
79285;BME280;68734;50.452;11.636;2024-03-06T03:37:17;95640.13;;;2.45;100.00
79285;BME280;68734;50.452;11.636;2024-03-06T03:39:46;95632.91;;;2.52;100.00
79285;BME280;68734;50.452;11.636;2024-03-06T03:42:11;95625.56;;;2.41;100.00
79285;BME280;68734;50.452;11.636;2024-03-06T03:44:36;95626.81;;;2.32;100.00
79285;BME280;68734;50.452;11.636;2024-03-06T03:47:02;95635.03;;;2.37;100.00
79285;BME280;68734;50.452;11.636;2024-03-06T03:49:27;95636.47;;;2.33;100.00
79285;BME280;68734;50.452;11.636;2024-03-06T03:51:53;95642.38;;;2.28;100.00
79285;BME280;68734;50.452;11.636;2024-03-06T03:54:18;95637.47;;;2.32;100.00
79285;BME280;68734;50.452;11.636;2024-03-06T03:56:43;95650.59;;;2.40;100.00
79285;BME280;68734;50.452;11.636;2024-03-06T03:59:09;95652.44;;;2.39;100.00
79285;BME280;68734;50.452;11.636;2024-03-06T04:01:35;95653.47;;;2.45;100.00
79285;BME280;68734;50.452;11.636;2024-03-06T04:04:00;95648.53;;;2.42;100.00
79285;BME280;68734;50.452;11.636;2024-03-06T04:06:26;95655.50;;;2.43;100.00
79285;BME280;68734;50.452;11.636;2024-03-06T04:08:51;95661.25;;;2.40;100.00
79285;BME280;68734;50.452;11.636;2024-03-06T04:11:17;95666.78;;;2.32;100.00
79285;BME280;68734;50.452;11.636;2024-03-06T04:13:43;95662.06;;;2.34;100.00
79285;BME280;68734;50.452;11.636;2024-03-06T04:16:08;95667.41;;;2.27;100.00
79285;BME280;68734;50.452;11.636;2024-03-06T04:18:34;95669.88;;;2.29;100.00
79285;BME280;68734;50.452;11.636;2024-03-06T04:21:08;95667.00;;;2.24;100.00
79285;BME280;68734;50.452;11.636;2024-03-06T04:23:35;95667.63;;;2.26;100.00
79285;BME280;68734;50.452;11.636;2024-03-06T04:26:02;95671.50;;;2.30;100.00
79285;BME280;68734;50.452;11.636;2024-03-06T04:28:30;95672.72;;;2.40;100.00
79285;BME280;68734;50.452;11.636;2024-03-06T04:30:55;95664.56;;;2.29;100.00
79285;BME280;68734;50.452;11.636;2024-03-06T04:33:21;95667.00;;;2.24;100.00
79285;BME280;68734;50.452;11.636;2024-03-06T04:35:47;95667.81;;;2.24;100.00
79285;BME280;68734;50.452;11.636;2024-03-06T04:38:14;95672.75;;;2.21;100.00
79285;BME280;68734;50.452;11.636;2024-03-06T04:40:40;95670.28;;;2.19;100.00
79285;BME280;68734;50.452;11.636;2024-03-06T04:43:08;95671.09;;;2.19;100.00
79285;BME280;68734;50.452;11.636;2024-03-06T04:45:33;95672.94;;;2.26;100.00
79285;BME280;68734;50.452;11.636;2024-03-06T04:47:59;95685.03;;;2.28;100.00
79285;BME280;68734;50.452;11.636;2024-03-06T04:50:24;95672.34;;;2.24;100.00
79285;BME280;68734;50.452;11.636;2024-03-06T04:52:50;95679.94;;;2.27;100.00
79285;BME280;68734;50.452;11.636;2024-03-06T04:55:16;95681.75;;;2.26;100.00
79285;BME280;68734;50.452;11.636;2024-03-06T04:57:45;95675.22;;;2.29;100.00
79285;BME280;68734;50.452;11.636;2024-03-06T05:00:13;95680.53;;;2.29;100.00
79285;BME280;68734;50.452;11.636;2024-03-06T05:02:39;95690.34;;;2.28;100.00
79285;BME280;68734;50.452;11.636;2024-03-06T05:05:05;95689.34;;;2.36;100.00
79285;BME280;68734;50.452;11.636;2024-03-06T05:07:31;95687.50;;;2.30;100.00
79285;BME280;68734;50.452;11.636;2024-03-06T05:10:00;95687.91;;;2.40;100.00
79285;BME280;68734;50.452;11.636;2024-03-06T05:12:26;95697.56;;;2.41;100.00
79285;BME280;68734;50.452;11.636;2024-03-06T05:14:53;95693.44;;;2.38;100.00
79285;BME280;68734;50.452;11.636;2024-03-06T05:17:19;95699.78;;;2.44;100.00
79285;BME280;68734;50.452;11.636;2024-03-06T05:19:46;95704.31;;;2.44;100.00
79285;BME280;68734;50.452;11.636;2024-03-06T05:22:13;95707.81;;;2.51;100.00
79285;BME280;68734;50.452;11.636;2024-03-06T05:24:42;95700.63;;;2.51;100.00
79285;BME280;68734;50.452;11.636;2024-03-06T05:27:08;95704.72;;;2.54;100.00
79285;BME280;68734;50.452;11.636;2024-03-06T05:29:35;95706.38;;;2.55;100.00
79285;BME280;68734;50.452;11.636;2024-03-06T05:32:02;95703.06;;;2.46;100.00
79285;BME280;68734;50.452;11.636;2024-03-06T05:34:28;95711.31;;;2.45;100.00
79285;BME280;68734;50.452;11.636;2024-03-06T05:36:54;95707.78;;;2.57;100.00
79285;BME280;68734;50.452;11.636;2024-03-06T05:39:20;95717.03;;;2.62;100.00
79285;BME280;68734;50.452;11.636;2024-03-06T05:41:45;95713.13;;;2.57;100.00
79285;BME280;68734;50.452;11.636;2024-03-06T05:44:11;95721.34;;;2.63;100.00
79285;BME280;68734;50.452;11.636;2024-03-06T05:46:37;95708.81;;;2.56;100.00
79285;BME280;68734;50.452;11.636;2024-03-06T05:49:05;95717.84;;;2.62;100.00
79285;BME280;68734;50.452;11.636;2024-03-06T05:51:30;95723.56;;;2.52;100.00
79285;BME280;68734;50.452;11.636;2024-03-06T05:53:56;95727.88;;;2.60;100.00
79285;BME280;68734;50.452;11.636;2024-03-06T05:56:22;95728.50;;;2.55;100.00
79285;BME280;68734;50.452;11.636;2024-03-06T05:58:47;95725.66;;;2.57;100.00
79285;BME280;68734;50.452;11.636;2024-03-06T06:01:17;95730.75;;;2.58;100.00
79285;BME280;68734;50.452;11.636;2024-03-06T06:03:48;95729.34;;;2.49;100.00
79285;BME280;68734;50.452;11.636;2024-03-06T06:06:17;95736.72;;;2.47;100.00
79285;BME280;68734;50.452;11.636;2024-03-06T06:08:48;95741.84;;;2.55;100.00
79285;BME280;68734;50.452;11.636;2024-03-06T06:11:14;95744.91;;;2.52;100.00
79285;BME280;68734;50.452;11.636;2024-03-06T06:13:39;95747.38;;;2.47;100.00
79285;BME280;68734;50.452;11.636;2024-03-06T06:16:05;95744.94;;;2.39;100.00
79285;BME280;68734;50.452;11.636;2024-03-06T06:18:31;95753.53;;;2.41;100.00
79285;BME280;68734;50.452;11.636;2024-03-06T06:20:57;95746.94;;;2.30;100.00
79285;BME280;68734;50.452;11.636;2024-03-06T06:23:23;95757.22;;;2.27;100.00
79285;BME280;68734;50.452;11.636;2024-03-06T06:25:48;95768.06;;;2.32;100.00
79285;BME280;68734;50.452;11.636;2024-03-06T06:28:14;95763.56;;;2.32;100.00
79285;BME280;68734;50.452;11.636;2024-03-06T06:30:39;95776.88;;;2.26;100.00
79285;BME280;68734;50.452;11.636;2024-03-06T06:33:07;95761.75;;;2.33;100.00
79285;BME280;68734;50.452;11.636;2024-03-06T06:35:34;95774.22;;;2.32;100.00
79285;BME280;68734;50.452;11.636;2024-03-06T06:38:00;95776.06;;;2.32;100.00
79285;BME280;68734;50.452;11.636;2024-03-06T06:40:28;95776.06;;;2.32;100.00
79285;BME280;68734;50.452;11.636;2024-03-06T06:42:54;95773.41;;;2.32;100.00
79285;BME280;68734;50.452;11.636;2024-03-06T06:45:20;95777.31;;;2.36;100.00
79285;BME280;68734;50.452;11.636;2024-03-06T06:47:47;95782.03;;;2.40;100.00
79285;BME280;68734;50.452;11.636;2024-03-06T06:50:13;95787.16;;;2.42;100.00
79285;BME280;68734;50.452;11.636;2024-03-06T06:52:39;95778.97;;;2.37;100.00
79285;BME280;68734;50.452;11.636;2024-03-06T06:55:09;95790.22;;;2.32;100.00
79285;BME280;68734;50.452;11.636;2024-03-06T06:57:37;95799.88;;;2.40;100.00
79285;BME280;68734;50.452;11.636;2024-03-06T07:00:03;95792.28;;;2.44;100.00
79285;BME280;68734;50.452;11.636;2024-03-06T07:02:36;95809.72;;;2.46;100.00
79285;BME280;68734;50.452;11.636;2024-03-06T07:05:02;95812.59;;;2.38;100.00
79285;BME280;68734;50.452;11.636;2024-03-06T07:07:29;95809.31;;;2.43;100.00
79285;BME280;68734;50.452;11.636;2024-03-06T07:09:59;95806.84;;;2.41;100.00
79285;BME280;68734;50.452;11.636;2024-03-06T07:12:25;95806.84;;;2.48;100.00
79285;BME280;68734;50.452;11.636;2024-03-06T07:14:53;95802.72;;;2.38;100.00
79285;BME280;68734;50.452;11.636;2024-03-06T07:17:18;95812.59;;;2.38;100.00
79285;BME280;68734;50.452;11.636;2024-03-06T07:19:43;95816.69;;;2.34;100.00
79285;BME280;68734;50.452;11.636;2024-03-06T07:22:09;95820.78;;;2.30;100.00
79285;BME280;68734;50.452;11.636;2024-03-06T07:24:34;95828.09;;;2.14;100.00
79285;BME280;68734;50.452;11.636;2024-03-06T07:27:02;95824.63;;;2.07;100.00
79285;BME280;68734;50.452;11.636;2024-03-06T07:29:28;95835.47;;;2.12;100.00
79285;BME280;68734;50.452;11.636;2024-03-06T07:31:54;95832.47;;;2.29;100.00
79285;BME280;68734;50.452;11.636;2024-03-06T07:34:19;95827.34;;;2.27;100.00
79285;BME280;68734;50.452;11.636;2024-03-06T07:36:49;95841.47;;;2.28;100.00
79285;BME280;68734;50.452;11.636;2024-03-06T07:39:19;95845.38;;;2.32;100.00
79285;BME280;68734;50.452;11.636;2024-03-06T07:41:44;95847.22;;;2.25;100.00
79285;BME280;68734;50.452;11.636;2024-03-06T07:44:12;95858.91;;;2.24;100.00
79285;BME280;68734;50.452;11.636;2024-03-06T07:46:40;95864.66;;;2.21;100.00
79285;BME280;68734;50.452;11.636;2024-03-06T07:49:05;95866.28;;;2.22;100.00
79285;BME280;68734;50.452;11.636;2024-03-06T07:51:32;95866.66;;;2.18;100.00
79285;BME280;68734;50.452;11.636;2024-03-06T07:53:58;95865.41;;;2.14;100.00
79285;BME280;68734;50.452;11.636;2024-03-06T07:56:27;95860.94;;;2.15;100.00
79285;BME280;68734;50.452;11.636;2024-03-06T07:58:58;95875.25;;;2.14;100.00
79285;BME280;68734;50.452;11.636;2024-03-06T08:01:30;95875.69;;;2.17;100.00
79285;BME280;68734;50.452;11.636;2024-03-06T08:03:59;95884.72;;;2.23;100.00
79285;BME280;68734;50.452;11.636;2024-03-06T08:06:24;95870.31;;;2.04;100.00
79285;BME280;68734;50.452;11.636;2024-03-06T08:08:50;95876.06;;;2.14;100.00
79285;BME280;68734;50.452;11.636;2024-03-06T08:11:23;95878.13;;;2.12;100.00
79285;BME280;68734;50.452;11.636;2024-03-06T08:13:57;95876.88;;;2.08;100.00
79285;BME280;68734;50.452;11.636;2024-03-06T08:16:25;95890.00;;;2.10;100.00
79285;BME280;68734;50.452;11.636;2024-03-06T08:18:51;95886.34;;;2.17;100.00
79285;BME280;68734;50.452;11.636;2024-03-06T08:21:16;95890.50;;;2.27;100.00
79285;BME280;68734;50.452;11.636;2024-03-06T08:23:42;95896.22;;;2.30;100.00
79285;BME280;68734;50.452;11.636;2024-03-06T08:26:08;95896.25;;;2.37;100.00
79285;BME280;68734;50.452;11.636;2024-03-06T08:28:33;95894.59;;;2.36;100.00
79285;BME280;68734;50.452;11.636;2024-03-06T08:31:00;95896.69;;;2.47;100.00
79285;BME280;68734;50.452;11.636;2024-03-06T08:33:25;95891.75;;;2.37;100.00
79285;BME280;68734;50.452;11.636;2024-03-06T08:35:54;95907.72;;;2.31;100.00
79285;BME280;68734;50.452;11.636;2024-03-06T08:38:24;95897.88;;;2.31;100.00
79285;BME280;68734;50.452;11.636;2024-03-06T08:40:50;95907.31;;;2.34;100.00
79285;BME280;68734;50.452;11.636;2024-03-06T08:43:18;95897.44;;;2.28;100.00
79285;BME280;68734;50.452;11.636;2024-03-06T08:45:44;95904.03;;;2.32;100.00
79285;BME280;68734;50.452;11.636;2024-03-06T08:48:10;95911.41;;;2.30;100.00
79285;BME280;68734;50.452;11.636;2024-03-06T08:50:36;95914.25;;;2.22;100.00
79285;BME280;68734;50.452;11.636;2024-03-06T08:53:02;95903.84;;;2.33;100.00
79285;BME280;68734;50.452;11.636;2024-03-06T08:55:28;95900.75;;;2.36;100.00
79285;BME280;68734;50.452;11.636;2024-03-06T08:57:54;95919.22;;;2.38;100.00
79285;BME280;68734;50.452;11.636;2024-03-06T09:00:21;95909.78;;;2.42;100.00
79285;BME280;68734;50.452;11.636;2024-03-06T09:02:47;95911.84;;;2.40;100.00
79285;BME280;68734;50.452;11.636;2024-03-06T09:05:12;95911.84;;;2.40;100.00
79285;BME280;68734;50.452;11.636;2024-03-06T09:07:43;95914.31;;;2.35;100.00
79285;BME280;68734;50.452;11.636;2024-03-06T09:10:10;95919.41;;;2.36;100.00
79285;BME280;68734;50.452;11.636;2024-03-06T09:12:36;95914.75;;;2.45;100.00
79285;BME280;68734;50.452;11.636;2024-03-06T09:15:02;95932.00;;;2.56;100.00
79285;BME280;68734;50.452;11.636;2024-03-06T09:17:34;95926.47;;;2.57;100.00
79285;BME280;68734;50.452;11.636;2024-03-06T09:20:00;95931.22;;;2.69;100.00
79285;BME280;68734;50.452;11.636;2024-03-06T09:22:35;95932.00;;;2.56;100.00
79285;BME280;68734;50.452;11.636;2024-03-06T09:25:01;95941.03;;;2.68;100.00
79285;BME280;68734;50.452;11.636;2024-03-06T09:27:27;95933.69;;;2.77;100.00
79285;BME280;68734;50.452;11.636;2024-03-06T09:29:52;95939.66;;;2.79;100.00
79285;BME280;68734;50.452;11.636;2024-03-06T09:32:17;95951.72;;;2.68;100.00
79285;BME280;68734;50.452;11.636;2024-03-06T09:34:46;95947.22;;;2.75;100.00
79285;BME280;68734;50.452;11.636;2024-03-06T09:37:12;95953.00;;;2.86;100.00
79285;BME280;68734;50.452;11.636;2024-03-06T09:39:37;95950.94;;;2.81;100.00
79285;BME280;68734;50.452;11.636;2024-03-06T09:42:03;95954.19;;;2.70;100.00
79285;BME280;68734;50.452;11.636;2024-03-06T09:44:31;95958.72;;;2.69;100.00
79285;BME280;68734;50.452;11.636;2024-03-06T09:46:59;95964.84;;;2.70;100.00
79285;BME280;68734;50.452;11.636;2024-03-06T09:49:29;95955.63;;;2.66;100.00
79285;BME280;68734;50.452;11.636;2024-03-06T09:51:56;95968.56;;;2.75;100.00
79285;BME280;68734;50.452;11.636;2024-03-06T09:54:25;95974.75;;;2.89;100.00
79285;BME280;68734;50.452;11.636;2024-03-06T09:56:51;95967.78;;;2.88;100.00
79285;BME280;68734;50.452;11.636;2024-03-06T09:59:17;95964.53;;;2.99;100.00
79285;BME280;68734;50.452;11.636;2024-03-06T10:01:50;95968.66;;;3.09;100.00
79285;BME280;68734;50.452;11.636;2024-03-06T10:06:48;95970.69;;;3.13;100.00
79285;BME280;68734;50.452;11.636;2024-03-06T10:09:18;95961.69;;;3.21;100.00
79285;BME280;68734;50.452;11.636;2024-03-06T10:11:46;95972.97;;;3.23;100.00
79285;BME280;68734;50.452;11.636;2024-03-06T10:14:13;95970.69;;;3.27;100.00
79285;BME280;68734;50.452;11.636;2024-03-06T10:16:52;95984.25;;;3.32;100.00
79285;BME280;68734;50.452;11.636;2024-03-06T10:19:18;95977.69;;;3.34;100.00
79285;BME280;68734;50.452;11.636;2024-03-06T10:21:47;95985.09;;;3.32;100.00
79285;BME280;68734;50.452;11.636;2024-03-06T10:24:21;95991.25;;;3.39;100.00
79285;BME280;68734;50.452;11.636;2024-03-06T10:26:52;95990.22;;;3.40;100.00
79285;BME280;68734;50.452;11.636;2024-03-06T10:29:20;95997.84;;;3.44;100.00
79285;BME280;68734;50.452;11.636;2024-03-06T10:31:53;95985.91;;;3.46;100.00
79285;BME280;68734;50.452;11.636;2024-03-06T10:34:26;95989.22;;;3.55;100.00
79285;BME280;68734;50.452;11.636;2024-03-06T10:37:01;95994.75;;;3.53;100.00
79285;BME280;68734;50.452;11.636;2024-03-06T10:39:30;95985.94;;;3.59;100.00
79285;BME280;68734;50.452;11.636;2024-03-06T10:42:01;95989.59;;;3.78;100.00
79285;BME280;68734;50.452;11.636;2024-03-06T10:44:27;95988.78;;;3.78;100.00
79285;BME280;68734;50.452;11.636;2024-03-06T10:47:02;95994.13;;;3.71;100.00
79285;BME280;68734;50.452;11.636;2024-03-06T10:49:28;95984.25;;;3.85;100.00
79285;BME280;68734;50.452;11.636;2024-03-06T10:52:02;95989.16;;;4.08;100.00
79285;BME280;68734;50.452;11.636;2024-03-06T10:54:31;95991.78;;;4.15;98.71
79285;BME280;68734;50.452;11.636;2024-03-06T10:57:00;95996.31;;;4.28;97.98
79285;BME280;68734;50.452;11.636;2024-03-06T10:59:27;95991.34;;;4.38;95.98
79285;BME280;68734;50.452;11.636;2024-03-06T11:01:58;95989.03;;;4.48;97.25
79285;BME280;68734;50.452;11.636;2024-03-06T11:04:31;95995.41;;;4.54;93.58
79285;BME280;68734;50.452;11.636;2024-03-06T11:07:00;95991.84;;;4.67;93.43
79285;BME280;68734;50.452;11.636;2024-03-06T11:09:28;95987.28;;;4.74;94.19
79285;BME280;68734;50.452;11.636;2024-03-06T11:11:54;95995.88;;;4.89;92.56
79285;BME280;68734;50.452;11.636;2024-03-06T11:14:23;95994.41;;;4.87;92.80
79285;BME280;68734;50.452;11.636;2024-03-06T11:17:02;95996.84;;;4.95;90.65
79285;BME280;68734;50.452;11.636;2024-03-06T11:19:29;95989.97;;;4.74;91.44
79285;BME280;68734;50.452;11.636;2024-03-06T11:21:55;95988.91;;;4.75;92.94
79285;BME280;68734;50.452;11.636;2024-03-06T11:24:24;95983.56;;;4.75;91.48
79285;BME280;68734;50.452;11.636;2024-03-06T11:26:59;95988.41;;;4.98;91.56
79285;BME280;68734;50.452;11.636;2024-03-06T11:29:27;95981.19;;;5.30;91.68
79285;BME280;68734;50.452;11.636;2024-03-06T11:32:05;95983.22;;;5.35;87.95
79285;BME280;68734;50.452;11.636;2024-03-06T11:34:36;95975.50;;;5.20;87.16
79285;BME280;68734;50.452;11.636;2024-03-06T11:37:10;95982.94;;;5.18;87.32
79285;BME280;68734;50.452;11.636;2024-03-06T11:39:41;95977.66;;;5.05;87.62
79285;BME280;68734;50.452;11.636;2024-03-06T11:42:09;95971.06;;;5.07;89.64
79285;BME280;68734;50.452;11.636;2024-03-06T11:44:35;95977.13;;;5.21;89.24
79285;BME280;68734;50.452;11.636;2024-03-06T11:47:06;95970.81;;;5.09;90.06
79285;BME280;68734;50.452;11.636;2024-03-06T11:49:34;95983.22;;;5.03;89.63
79285;BME280;68734;50.452;11.636;2024-03-06T11:52:02;95976.66;;;4.99;89.41
79285;BME280;68734;50.452;11.636;2024-03-06T11:54:29;95972.28;;;5.05;90.21
79285;BME280;68734;50.452;11.636;2024-03-06T11:56:59;95977.03;;;5.03;88.38
79285;BME280;68734;50.452;11.636;2024-03-06T11:59:36;95974.72;;;5.13;89.67
79285;BME280;68734;50.452;11.636;2024-03-06T12:02:05;95967.53;;;5.07;87.18
79285;BME280;68734;50.452;11.636;2024-03-06T12:04:35;95964.97;;;5.25;86.95
79285;BME280;68734;50.452;11.636;2024-03-06T12:07:03;95967.94;;;5.42;86.62
79285;BME280;68734;50.452;11.636;2024-03-06T12:09:38;95976.50;;;5.51;87.58
79285;BME280;68734;50.452;11.636;2024-03-06T12:12:05;95973.41;;;5.54;84.65
79285;BME280;68734;50.452;11.636;2024-03-06T12:14:35;95972.00;;;5.51;84.65
79285;BME280;68734;50.452;11.636;2024-03-06T12:17:01;95979.44;;;5.43;84.99
79285;BME280;68734;50.452;11.636;2024-03-06T12:19:34;95978.56;;;5.55;85.19
79285;BME280;68734;50.452;11.636;2024-03-06T12:22:01;95976.50;;;5.51;83.29
79285;BME280;68734;50.452;11.636;2024-03-06T12:24:28;95963.22;;;5.63;82.62
79285;BME280;68734;50.452;11.636;2024-03-06T12:27:01;95969.78;;;5.67;80.40
79285;BME280;68734;50.452;11.636;2024-03-06T12:29:29;95967.41;;;5.77;80.53
79285;BME280;68734;50.452;11.636;2024-03-06T12:31:58;95960.50;;;5.69;79.46
79285;BME280;68734;50.452;11.636;2024-03-06T12:34:24;95961.84;;;5.78;78.85
79285;BME280;68734;50.452;11.636;2024-03-06T12:36:49;95971.59;;;5.98;80.34
79285;BME280;68734;50.452;11.636;2024-03-06T12:39:19;95966.66;;;5.95;78.34
79285;BME280;68734;50.452;11.636;2024-03-06T12:41:51;95961.84;;;5.78;77.51
79285;BME280;68734;50.452;11.636;2024-03-06T12:44:21;95961.41;;;5.82;77.49
79285;BME280;68734;50.452;11.636;2024-03-06T12:46:47;95964.31;;;5.80;78.16
79285;BME280;68734;50.452;11.636;2024-03-06T12:49:12;95970.94;;;5.77;79.43
79285;BME280;68734;50.452;11.636;2024-03-06T12:51:40;95978.03;;;5.65;80.13
79285;BME280;68734;50.452;11.636;2024-03-06T12:54:07;95978.59;;;5.49;79.39